TimeCST,TemperatureF,Dew PointF,Humidity,Sea Level PressureIn,VisibilityMPH,Wind Direction,Wind SpeedMPH,Gust SpeedMPH,PrecipitationIn,Events,Conditions,WindDirDegrees,DateUTC
12:15 AM,26.6,21.2,80,30.09,9.0,Calm,Calm,-,N/A,,Overcast,0,2013-02-03 06:15:00
12:35 AM,26.6,23.0,86,30.08,9.0,Calm,Calm,-,N/A,,Overcast,0,2013-02-03 06:35:00
1:15 AM,26.6,21.2,80,30.05,1.5,Calm,Calm,-,N/A,,Overcast,0,2013-02-03 07:15:00
1:35 AM,26.6,23.0,86,30.06,1.5,Calm,Calm,-,N/A,,Overcast,0,2013-02-03 07:35:00
1:55 AM,26.6,23.0,86,30.05,0.5,Calm,Calm,-,N/A,,Overcast,0,2013-02-03 07:55:00
2:15 AM,26.6,23.0,86,30.05,0.8,Calm,Calm,-,N/A,,Overcast,0,2013-02-03 08:15:00
2:35 AM,26.6,24.8,93,30.04,3.0,Calm,Calm,-,N/A,,Overcast,0,2013-02-03 08:35:00
2:55 AM,26.6,24.8,93,30.03,4.0,Calm,Calm,-,N/A,,Overcast,0,2013-02-03 08:55:00
3:15 AM,26.6,24.8,93,30.03,5.0,Calm,Calm,-,0.03,,Overcast,0,2013-02-03 09:15:00
3:35 AM,26.6,24.8,93,30.03,5.0,Calm,Calm,-,0.04,,Overcast,0,2013-02-03 09:35:00
3:55 AM,28.4,24.8,86,30.02,5.0,Calm,Calm,-,0.05,,Overcast,0,2013-02-03 09:55:00
4:15 AM,26.6,24.8,93,30.01,4.0,Calm,Calm,-,N/A,,Overcast,0,2013-02-03 10:15:00
4:35 AM,26.6,24.8,93,30.01,5.0,Calm,Calm,-,0.01,,Overcast,0,2013-02-03 10:35:00
4:55 AM,28.4,24.8,86,30.02,4.0,Calm,Calm,-,0.01,,Overcast,0,2013-02-03 10:55:00
5:15 AM,26.6,24.8,93,30.02,4.0,Calm,Calm,-,N/A,,Overcast,0,2013-02-03 11:15:00
5:35 AM,26.6,24.8,93,30.02,3.0,Calm,Calm,-,N/A,,Overcast,0,2013-02-03 11:35:00
5:55 AM,28.4,26.6,93,30.03,3.0,West,3.5,-,N/A,,Overcast,280,2013-02-03 11:55:00
6:15 AM,28.4,26.6,93,30.03,5.0,Calm,Calm,-,N/A,,Overcast,0,2013-02-03 12:15:00
6:35 AM,30.2,26.6,86,30.04,5.0,West,5.8,-,N/A,,Overcast,280,2013-02-03 12:35:00
6:55 AM,30.2,26.6,86,30.04,6.0,WNW,5.8,-,N/A,,Overcast,300,2013-02-03 12:55:00
7:15 AM,30.2,26.6,86,30.04,8.0,NW,4.6,-,N/A,,Overcast,310,2013-02-03 13:15:00
7:35 AM,30.2,26.6,86,30.05,8.0,WNW,3.5,-,N/A,,Overcast,290,2013-02-03 13:35:00
7:55 AM,30.2,26.6,86,30.05,8.0,West,4.6,-,N/A,,Overcast,280,2013-02-03 13:55:00
8:15 AM,32.0,26.6,80,30.07,7.0,WNW,5.8,-,N/A,,Overcast,290,2013-02-03 14:15:00
8:35 AM,32.0,26.6,80,30.07,7.0,WNW,5.8,-,N/A,,Overcast,290,2013-02-03 14:35:00
8:55 AM,32.0,26.6,80,30.08,8.0,West,3.5,-,N/A,,Overcast,280,2013-02-03 14:55:00
9:15 AM,32.0,26.6,80,30.08,8.0,West,5.8,-,N/A,,Overcast,280,2013-02-03 15:15:00
9:35 AM,32.0,26.6,80,30.09,9.0,West,5.8,-,N/A,,Overcast,280,2013-02-03 15:35:00
10:15 AM,32.0,26.6,80,30.11,10.0,West,8.1,-,N/A,,Overcast,270,2013-02-03 16:15:00
10:35 AM,32.0,26.6,80,30.13,10.0,West,9.2,-,N/A,,Overcast,280,2013-02-03 16:35:00
10:55 AM,32.0,24.8,75,30.14,10.0,West,8.1,23.0,N/A,,Overcast,270,2013-02-03 16:55:00
11:15 AM,32.0,24.8,75,30.15,10.0,West,10.4,19.6,N/A,,Overcast,280,2013-02-03 17:15:00
11:35 AM,30.2,24.8,80,30.15,10.0,NW,4.6,-,N/A,,Overcast,310,2013-02-03 17:35:00
11:55 AM,30.2,23.0,75,30.16,10.0,WNW,8.1,16.1,N/A,,Overcast,300,2013-02-03 17:55:00
12:15 PM,30.2,21.2,69,30.16,10.0,NW,9.2,18.4,N/A,,Overcast,310,2013-02-03 18:15:00
12:35 PM,30.2,21.2,69,30.16,10.0,WNW,11.5,19.6,N/A,,Overcast,290,2013-02-03 18:35:00
12:55 PM,30.2,17.6,60,30.17,10.0,WNW,8.1,18.4,N/A,,Overcast,290,2013-02-03 18:55:00
1:35 PM,30.2,17.6,60,30.18,10.0,WNW,10.4,18.4,N/A,,Overcast,290,2013-02-03 19:35:00
1:55 PM,30.2,17.6,60,30.18,10.0,WNW,5.8,-,N/A,,Mostly Cloudy,300,2013-02-03 19:55:00
2:35 PM,30.2,17.6,60,30.18,10.0,West,8.1,18.4,N/A,,Mostly Cloudy,270,2013-02-03 20:35:00
2:55 PM,30.2,17.6,60,30.19,10.0,WNW,5.8,-,N/A,,Mostly Cloudy,300,2013-02-03 20:55:00
3:15 PM,32.0,17.6,55,30.18,10.0,WNW,8.1,-,N/A,,Mostly Cloudy,290,2013-02-03 21:15:00
3:55 PM,32.0,17.6,55,30.19,10.0,NW,5.8,-,N/A,,Clear,310,2013-02-03 21:55:00
4:15 PM,32.0,17.6,55,30.19,10.0,West,6.9,-,N/A,,Clear,270,2013-02-03 22:15:00
4:35 PM,30.2,15.8,55,30.18,10.0,Calm,Calm,-,N/A,,Clear,0,2013-02-03 22:35:00
4:55 PM,30.2,15.8,55,30.17,10.0,West,5.8,-,N/A,,Clear,280,2013-02-03 22:55:00
5:15 PM,30.2,15.8,55,30.17,10.0,West,3.5,-,N/A,,Clear,270,2013-02-03 23:15:00
5:35 PM,28.4,15.8,59,30.17,10.0,Calm,Calm,-,N/A,,Clear,0,2013-02-03 23:35:00
5:55 PM,28.4,17.6,64,30.17,10.0,Calm,Calm,-,N/A,,Clear,0,2013-02-03 23:55:00
6:15 PM,24.8,15.8,69,30.17,10.0,Calm,Calm,-,N/A,,Clear,0,2013-02-04 00:15:00
6:35 PM,24.8,17.6,74,30.18,10.0,Calm,Calm,-,N/A,,Clear,0,2013-02-04 00:35:00
7:15 PM,24.8,17.6,74,30.17,10.0,South,3.5,-,N/A,,Clear,180,2013-02-04 01:15:00
7:35 PM,24.8,17.6,74,30.16,10.0,Calm,Calm,-,N/A,,Clear,0,2013-02-04 01:35:00
7:55 PM,24.8,17.6,74,30.16,10.0,Calm,Calm,-,N/A,,Clear,0,2013-02-04 01:55:00
8:15 PM,24.8,17.6,74,30.16,10.0,Calm,Calm,-,N/A,,Clear,0,2013-02-04 02:15:00
8:35 PM,21.2,15.8,80,30.16,10.0,Calm,Calm,-,N/A,,Clear,0,2013-02-04 02:35:00
8:55 PM,21.2,17.6,86,30.14,10.0,Calm,Calm,-,N/A,,Clear,0,2013-02-04 02:55:00
9:15 PM,23.0,17.6,80,30.14,10.0,Calm,Calm,-,N/A,,Clear,0,2013-02-04 03:15:00
9:35 PM,21.2,17.6,86,30.14,10.0,Calm,Calm,-,N/A,,Clear,0,2013-02-04 03:35:00
9:55 PM,21.2,19.4,93,30.12,10.0,Calm,Calm,-,N/A,,Clear,0,2013-02-04 03:55:00
10:15 PM,23.0,15.8,74,30.12,10.0,Calm,Calm,-,N/A,,Clear,0,2013-02-04 04:15:00
10:35 PM,24.8,15.8,69,30.12,10.0,Calm,Calm,-,N/A,,Clear,0,2013-02-04 04:35:00
10:55 PM,23.0,15.8,74,30.12,10.0,Calm,Calm,-,N/A,,Clear,0,2013-02-04 04:55:00
11:15 PM,24.8,15.8,69,30.10,10.0,Calm,Calm,-,N/A,,Clear,0,2013-02-04 05:15:00
11:35 PM,24.8,15.8,69,30.09,10.0,Calm,Calm,-,N/A,,Clear,0,2013-02-04 05:35:00